Time;durP1;ratioP1;P1;durP2;ratioP2;P2;SDS_P1;SDS_P2;PMS_P1;PMS_P2;Temp;Humidity;BMP_temperature;BMP_pressure;BME280_temperature;BME280_humidity;BME280_pressure;Samples;Min_cycle;Max_cycle;Signal;HPM_P1;HPM_P2
2022/01/25 00:26:48;;;;;;;15.63;7.68;;;;;;;;;;5084905;28;20139;-84
2022/01/25 00:29:28;;;;;;;18.15;8.02;;;;;;;;;;5092021;28;20028;-84
2022/01/25 00:31:54;;;;;;;11.25;6.13;;;;;;;;;;5084955;28;20016;-83
2022/01/25 00:34:21;;;;;;;12.07;6.65;;;;;;;;;;5086382;28;20095;-83
2022/01/25 00:36:47;;;;;;;11.45;6.30;;;;;;;;;;5085854;28;20032;-81
2022/01/25 00:39:14;;;;;;;11.80;6.40;;;;;;;;;;5085556;28;20488;-84
2022/01/25 00:41:42;;;;;;;12.77;6.63;;;;;;;;;;5072023;28;20250;-84
2022/01/25 00:44:11;;;;;;;13.18;7.72;;;;;;;;;;5086384;28;20101;-83
2022/01/25 00:46:37;;;;;;;17.40;7.78;;;;;;;;;;5086251;28;20096;-84
2022/01/25 00:49:05;;;;;;;16.92;7.78;;;;;;;;;;5085603;28;20058;-84
2022/01/25 00:54:17;;;;;;;14.57;6.95;;;;;;;;;;5081881;28;20122;-82
2022/01/25 00:56:45;;;;;;;13.02;6.43;;;;;;;;;;5079676;28;20228;-82
2022/01/25 00:59:15;;;;;;;14.68;7.78;;;;;;;;;;5077450;28;20067;-83
2022/01/25 01:01:41;;;;;;;15.10;7.57;;;;;;;;;;5082574;28;20052;-82
2022/01/25 01:04:09;;;;;;;13.50;6.47;;;;;;;;;;5082352;28;20050;-84
2022/01/25 01:06:36;;;;;;;13.80;7.03;;;;;;;;;;5081547;28;20031;-84
2022/01/25 01:09:04;;;;;;;11.40;6.50;;;;;;;;;;5093262;28;20024;-85
2022/01/25 01:33:30;;;;;;;20.38;6.38;;;;;;;;;;5086418;28;20078;-84
2022/01/25 01:43:36;;;;;;;14.30;6.38;;;;;;;;;;5084941;28;20040;-83
2022/01/25 01:48:55;;;;;;;10.65;6.65;;;;;;;;;;5084085;28;20377;-84
2022/01/25 01:51:28;;;;;;;12.63;6.00;;;;;;;;;;5075256;28;20036;-83
2022/01/25 01:54:06;;;;;;;10.48;5.82;;;;;;;;;;5083719;28;20016;-84
2022/01/25 01:56:33;;;;;;;13.73;6.90;;;;;;;;;;5085386;28;20024;-84
2022/01/25 01:59:01;;;;;;;15.82;7.30;;;;;;;;;;5085860;28;20075;-83
2022/01/25 02:01:29;;;;;;;16.40;6.65;;;;;;;;;;5087872;28;20024;-84
2022/01/25 02:03:56;;;;;;;12.35;6.35;;;;;;;;;;5079574;28;20055;-83
2022/01/25 02:06:22;;;;;;;16.17;6.75;;;;;;;;;;5072994;28;20373;-83
2022/01/25 02:08:48;;;;;;;9.57;6.03;;;;;;;;;;5073121;28;20488;-83
2022/01/25 02:11:14;;;;;;;13.80;6.20;;;;;;;;;;5055786;28;20060;-83
2022/01/25 02:13:41;;;;;;;12.52;5.65;;;;;;;;;;5073662;28;20056;-83
2022/01/25 02:16:15;;;;;;;8.40;6.22;;;;;;;;;;5081276;28;20016;-83
2022/01/25 02:24:10;;;;;;;18.58;6.97;;;;;;;;;;5093211;28;20459;-82
2022/01/25 02:26:36;;;;;;;11.98;6.65;;;;;;;;;;5078426;28;20028;-81
2022/01/25 02:29:02;;;;;;;13.27;6.18;;;;;;;;;;5087630;28;20025;-81
2022/01/25 02:31:28;;;;;;;16.73;6.90;;;;;;;;;;5084623;28;20468;-83
2022/01/25 02:33:54;;;;;;;16.10;6.82;;;;;;;;;;5078885;28;20412;-82
2022/01/25 02:36:24;;;;;;;9.80;6.45;;;;;;;;;;5080387;28;20032;-83
2022/01/25 02:38:50;;;;;;;8.80;5.70;;;;;;;;;;5081462;28;20111;-83
2022/01/25 02:41:16;;;;;;;13.50;6.78;;;;;;;;;;5081465;28;20029;-82
2022/01/25 02:43:46;;;;;;;11.48;5.68;;;;;;;;;;5081711;28;20119;-83
2022/01/25 02:48:47;;;;;;;13.93;7.35;;;;;;;;;;5081280;28;20060;-84
2022/01/25 02:51:13;;;;;;;24.80;7.47;;;;;;;;;;5074129;28;20035;-82
2022/01/25 02:53:39;;;;;;;16.25;7.30;;;;;;;;;;5080341;28;20028;-82
2022/01/25 02:56:05;;;;;;;14.10;7.68;;;;;;;;;;5080976;28;20208;-82
2022/01/25 02:58:31;;;;;;;23.77;7.53;;;;;;;;;;5062952;28;20037;-82
2022/01/25 03:00:57;;;;;;;13.40;7.65;;;;;;;;;;5081253;28;20105;-81
2022/01/25 03:03:23;;;;;;;18.83;7.88;;;;;;;;;;5081102;28;20032;-82
2022/01/25 03:05:49;;;;;;;14.15;7.88;;;;;;;;;;5090014;28;20032;-83
2022/01/25 03:08:15;;;;;;;16.85;8.45;;;;;;;;;;5088795;28;20048;-83
2022/01/25 03:10:43;;;;;;;15.00;8.05;;;;;;;;;;5089822;28;20008;-83
2022/01/25 03:13:16;;;;;;;23.73;9.27;;;;;;;;;;5088738;28;20032;-83
2022/01/25 03:18:38;;;;;;;18.42;8.20;;;;;;;;;;5067525;28;20033;-83
2022/01/25 03:23:41;;;;;;;21.08;8.82;;;;;;;;;;5084059;28;20075;-83
2022/01/25 03:26:07;;;;;;;20.17;8.27;;;;;;;;;;5085360;28;20052;-84
2022/01/25 03:28:33;;;;;;;19.45;8.10;;;;;;;;;;5071782;28;20033;-82
2022/01/25 03:30:59;;;;;;;13.48;7.45;;;;;;;;;;5085358;28;20031;-83
2022/01/25 03:33:25;;;;;;;16.88;7.22;;;;;;;;;;5085067;28;20100;-82
2022/01/25 03:35:52;;;;;;;13.15;6.60;;;;;;;;;;5079911;28;20024;-82
2022/01/25 03:38:18;;;;;;;16.27;7.93;;;;;;;;;;5082543;28;20048;-82
2022/01/25 03:40:45;;;;;;;13.60;6.72;;;;;;;;;;5065872;28;20028;-83
2022/01/25 03:43:11;;;;;;;12.65;6.85;;;;;;;;;;5084281;28;20051;-83
2022/01/25 03:45:41;;;;;;;12.68;6.70;;;;;;;;;;5083049;28;20020;-83
2022/01/25 03:50:35;;;;;;;20.75;7.25;;;;;;;;;;5083896;28;20036;-82
2022/01/25 03:53:01;;;;;;;13.00;7.45;;;;;;;;;;5083847;28;20099;-83
2022/01/25 03:55:27;;;;;;;12.73;6.32;;;;;;;;;;5082182;28;20024;-83
2022/01/25 03:57:53;;;;;;;15.77;6.43;;;;;;;;;;5082234;28;20017;-83
2022/01/25 04:00:19;;;;;;;12.70;6.95;;;;;;;;;;5063838;28;20047;-83
2022/01/25 04:02:52;;;;;;;20.17;7.80;;;;;;;;;;5083160;28;20031;-83
2022/01/25 04:05:33;;;;;;;18.15;7.50;;;;;;;;;;5087831;28;20028;-82
2022/01/25 04:07:59;;;;;;;10.77;6.50;;;;;;;;;;5058675;28;20192;-82
2022/01/25 04:10:25;;;;;;;17.90;7.03;;;;;;;;;;5077649;28;20519;-82
2022/01/25 04:12:51;;;;;;;18.25;7.68;;;;;;;;;;5076932;28;20150;-83
2022/01/25 04:15:17;;;;;;;18.40;8.65;;;;;;;;;;5077799;28;20047;-82
2022/01/25 04:17:48;;;;;;;14.52;7.97;;;;;;;;;;5076722;28;20020;-83
2022/01/25 04:20:25;;;;;;;20.30;9.52;;;;;;;;;;5080430;28;20438;-84
2022/01/25 04:25:36;;;;;;;21.27;9.73;;;;;;;;;;5079057;28;20110;-83
2022/01/25 04:28:02;;;;;;;18.88;8.57;;;;;;;;;;5078550;28;20025;-83
2022/01/25 04:30:28;;;;;;;19.00;9.15;;;;;;;;;;5079768;28;20350;-82
2022/01/25 04:33:16;;;;;;;20.98;10.65;;;;;;;;;;5061049;28;20054;-82
2022/01/25 04:35:55;;;;;;;21.35;9.68;;;;;;;;;;5078441;28;20032;-82
2022/01/25 04:49:24;;;;;;;22.40;10.80;;;;;;;;;;5078316;28;20696;-81
2022/01/25 04:52:06;;;;;;;18.88;8.93;;;;;;;;;;5078609;28;20078;-82
2022/01/25 04:54:57;;;;;;;24.58;9.63;;;;;;;;;;5064116;28;20085;-83
2022/01/25 05:05:05;;;;;;;15.90;7.22;;;;;;;;;;5084928;28;20107;-83
2022/01/25 05:07:40;;;;;;;15.15;7.32;;;;;;;;;;5063179;28;20036;-83
2022/01/25 05:10:08;;;;;;;17.10;7.38;;;;;;;;;;5079332;28;20033;-82
2022/01/25 05:16:00;;;;;;;15.90;7.97;;;;;;;;;;5071506;28;20058;-83
2022/01/25 05:18:23;;;;;;;15.70;7.10;;;;;;;;;;5074144;28;20028;-82
2022/01/25 05:23:34;;;;;;;13.88;7.93;;;;;;;;;;5078289;28;20470;-82
2022/01/25 05:26:01;;;;;;;14.25;7.20;;;;;;;;;;5077117;28;20024;-82
2022/01/25 05:28:27;;;;;;;17.10;8.02;;;;;;;;;;5059470;28;20021;-82
2022/01/25 05:30:53;;;;;;;18.42;8.43;;;;;;;;;;5059431;28;20071;-85
2022/01/25 05:33:19;;;;;;;18.85;7.47;;;;;;;;;;5059260;28;20039;-83
2022/01/25 05:35:45;;;;;;;15.30;8.02;;;;;;;;;;5058660;28;20020;-82
2022/01/25 05:38:11;;;;;;;18.02;8.95;;;;;;;;;;5076956;28;20063;-83
2022/01/25 05:40:46;;;;;;;24.38;9.75;;;;;;;;;;5077090;28;20028;-81
2022/01/25 05:48:11;;;;;;;16.20;8.77;;;;;;;;;;5075905;28;20026;-82
2022/01/25 05:50:37;;;;;;;16.35;9.10;;;;;;;;;;5078034;28;20021;-83
2022/01/25 05:53:03;;;;;;;18.58;8.82;;;;;;;;;;5077728;28;20345;-83
2022/01/25 05:55:29;;;;;;;25.08;8.43;;;;;;;;;;5057786;28;20024;-82
2022/01/25 05:57:55;;;;;;;17.35;8.45;;;;;;;;;;5076527;28;20025;-81
2022/01/25 06:00:21;;;;;;;13.52;7.72;;;;;;;;;;5077695;28;20058;-82
2022/01/25 06:02:53;;;;;;;20.40;8.27;;;;;;;;;;5081995;28;20109;-82
2022/01/25 06:05:19;;;;;;;17.88;7.57;;;;;;;;;;5089999;28;20032;-82
2022/01/25 06:07:45;;;;;;;15.98;6.75;;;;;;;;;;5077011;28;20020;-80
2022/01/25 06:10:11;;;;;;;21.20;7.38;;;;;;;;;;5081694;28;20032;-83
2022/01/25 06:12:37;;;;;;;15.38;8.18;;;;;;;;;;5084101;28;20028;-82
2022/01/25 06:15:03;;;;;;;23.85;10.13;;;;;;;;;;5084839;28;20029;-83
2022/01/25 06:17:29;;;;;;;21.58;9.10;;;;;;;;;;5066128;28;20017;-83
2022/01/25 06:19:55;;;;;;;19.67;8.70;;;;;;;;;;5092131;28;20036;-83
2022/01/25 06:22:22;;;;;;;19.50;8.02;;;;;;;;;;5106772;28;20024;-83
2022/01/25 06:24:48;;;;;;;23.95;9.73;;;;;;;;;;5080889;28;20028;-84
2022/01/25 06:27:14;;;;;;;28.00;10.02;;;;;;;;;;5074979;28;20040;-84
2022/01/25 06:29:40;;;;;;;24.60;10.30;;;;;;;;;;5048828;28;20032;-83
2022/01/25 06:32:07;;;;;;;23.88;8.68;;;;;;;;;;5084413;28;20027;-84
2022/01/25 06:34:33;;;;;;;24.90;9.77;;;;;;;;;;5087979;28;20035;-84
2022/01/25 06:36:59;;;;;;;24.48;9.07;;;;;;;;;;5067839;28;20044;-83
2022/01/25 06:39:25;;;;;;;18.33;8.57;;;;;;;;;;5083264;28;20025;-85
2022/01/25 06:41:51;;;;;;;24.33;8.90;;;;;;;;;;5085616;28;20050;-84
2022/01/25 06:44:17;;;;;;;18.63;9.50;;;;;;;;;;5081091;28;20029;-84
2022/01/25 06:46:46;;;;;;;22.17;9.23;;;;;;;;;;5080680;28;20031;-85
2022/01/25 06:49:12;;;;;;;19.48;9.32;;;;;;;;;;5091895;28;20024;-89
2022/01/25 06:51:38;;;;;;;20.00;9.68;;;;;;;;;;5088143;28;20476;-84
2022/01/25 06:54:04;;;;;;;18.63;8.93;;;;;;;;;;5069536;28;20024;-84
2022/01/25 06:56:30;;;;;;;19.23;8.68;;;;;;;;;;5076328;28;20040;-84
2022/01/25 06:58:57;;;;;;;18.63;9.32;;;;;;;;;;5066395;28;20047;-85
2022/01/25 07:01:23;;;;;;;23.77;9.63;;;;;;;;;;5082823;28;20024;-84
2022/01/25 07:03:49;;;;;;;19.35;8.52;;;;;;;;;;5083632;28;20025;-85
2022/01/25 07:06:15;;;;;;;22.85;9.55;;;;;;;;;;5081136;28;20029;-85
2022/01/25 07:08:44;;;;;;;24.80;11.10;;;;;;;;;;5064988;28;20100;-86
2022/01/25 07:11:10;;;;;;;22.15;10.38;;;;;;;;;;5081641;28;20020;-85
2022/01/25 07:13:36;;;;;;;35.95;12.75;;;;;;;;;;5063987;28;20092;-84
2022/01/25 07:16:02;;;;;;;35.70;13.18;;;;;;;;;;5064763;28;20578;-84
2022/01/25 07:18:28;;;;;;;29.15;13.98;;;;;;;;;;5082792;28;20033;-84
2022/01/25 07:20:54;;;;;;;41.42;13.38;;;;;;;;;;5076987;28;20033;-85
2022/01/25 07:23:20;;;;;;;34.67;14.35;;;;;;;;;;5097333;28;20039;-85
2022/01/25 07:25:46;;;;;;;35.15;12.73;;;;;;;;;;5113921;28;20144;-86
2022/01/25 07:28:12;;;;;;;32.42;10.77;;;;;;;;;;5089369;28;20028;-81
2022/01/25 07:30:38;;;;;;;24.80;11.55;;;;;;;;;;5066942;28;20017;-84
2022/01/25 07:33:05;;;;;;;31.02;12.27;;;;;;;;;;5064099;28;20084;-85
2022/01/25 07:35:35;;;;;;;39.63;13.25;;;;;;;;;;5082522;28;20020;-84
2022/01/25 07:38:01;;;;;;;35.40;13.90;;;;;;;;;;5081646;28;20020;-84
2022/01/25 07:40:27;;;;;;;40.88;12.43;;;;;;;;;;5083128;28;20063;-85
2022/01/25 07:42:53;;;;;;;33.85;13.18;;;;;;;;;;5064520;28;20123;-84
2022/01/25 07:45:20;;;;;;;40.15;14.43;;;;;;;;;;5083110;28;20080;-85
2022/01/25 07:47:46;;;;;;;35.85;13.15;;;;;;;;;;5082837;28;20076;-85
2022/01/25 07:50:12;;;;;;;43.30;16.80;;;;;;;;;;5060621;28;20046;-86
2022/01/25 07:52:39;;;;;;;35.05;15.00;;;;;;;;;;5074126;28;20031;-85
2022/01/25 07:55:05;;;;;;;28.17;12.18;;;;;;;;;;5057383;28;20024;-86
2022/01/25 07:57:31;;;;;;;33.53;14.13;;;;;;;;;;5057079;28;20074;-86
2022/01/25 07:59:58;;;;;;;50.53;14.70;;;;;;;;;;5056235;28;20111;-85
2022/01/25 08:02:24;;;;;;;29.60;13.55;;;;;;;;;;5057381;28;20020;-86
2022/01/25 08:04:50;;;;;;;38.45;15.07;;;;;;;;;;5070606;28;20036;-84
2022/01/25 08:07:18;;;;;;;39.13;13.73;;;;;;;;;;5074999;28;20024;-87
2022/01/25 08:09:44;;;;;;;31.33;12.18;;;;;;;;;;5057367;28;20028;-86
2022/01/25 08:12:11;;;;;;;35.53;14.13;;;;;;;;;;5074805;28;20020;-86
2022/01/25 08:14:38;;;;;;;34.55;13.60;;;;;;;;;;5074267;28;20383;-86
2022/01/25 08:17:06;;;;;;;33.58;14.18;;;;;;;;;;5070490;28;20024;-86
2022/01/25 08:19:32;;;;;;;35.45;14.48;;;;;;;;;;5056852;28;20029;-87
2022/01/25 08:21:58;;;;;;;30.05;12.88;;;;;;;;;;5056264;28;20400;-86
2022/01/25 08:24:25;;;;;;;31.35;12.18;;;;;;;;;;5074617;28;20025;-88
2022/01/25 08:26:51;;;;;;;27.83;12.70;;;;;;;;;;5076169;28;20016;-88
2022/01/25 08:29:17;;;;;;;23.38;11.45;;;;;;;;;;5076655;28;20035;-88
2022/01/25 08:31:44;;;;;;;26.35;12.07;;;;;;;;;;5067666;28;20029;-87
2022/01/25 08:34:13;;;;;;;24.58;12.07;;;;;;;;;;5058226;28;20016;-88
2022/01/25 08:36:40;;;;;;;29.45;11.50;;;;;;;;;;5074403;28;20016;-88
2022/01/25 08:39:06;;;;;;;31.05;11.68;;;;;;;;;;5056665;28;20046;-88
2022/01/25 08:41:33;;;;;;;24.45;11.95;;;;;;;;;;5074687;28;20047;-88
2022/01/25 08:43:59;;;;;;;25.20;11.20;;;;;;;;;;5074619;28;20033;-88
2022/01/25 08:46:26;;;;;;;34.88;14.05;;;;;;;;;;5073778;28;20023;-87
2022/01/25 08:48:52;;;;;;;34.08;12.82;;;;;;;;;;5056016;28;20115;-86
2022/01/25 08:51:18;;;;;;;25.75;12.10;;;;;;;;;;5074381;28;20035;-86
2022/01/25 08:53:44;;;;;;;33.80;14.27;;;;;;;;;;5055786;28;20610;-84
2022/01/25 08:56:10;;;;;;;35.60;14.38;;;;;;;;;;5076121;28;20028;-88
2022/01/25 08:58:37;;;;;;;32.38;14.40;;;;;;;;;;5075349;28;20025;-86
2022/01/25 09:01:04;;;;;;;40.03;14.00;;;;;;;;;;5076651;28;20032;-87
2022/01/25 09:03:30;;;;;;;36.00;14.98;;;;;;;;;;5056653;28;20043;-87
2022/01/25 09:05:56;;;;;;;31.00;13.90;;;;;;;;;;5056694;28;20070;-87
2022/01/25 09:08:23;;;;;;;40.80;15.80;;;;;;;;;;5055790;28;20024;-87
2022/01/25 09:10:52;;;;;;;44.38;13.88;;;;;;;;;;5059957;28;20032;-87
2022/01/25 09:13:18;;;;;;;34.97;13.15;;;;;;;;;;5056749;28;20021;-87
2022/01/25 09:15:45;;;;;;;26.98;12.98;;;;;;;;;;5060716;28;20036;-88
2022/01/25 09:18:11;;;;;;;33.35;13.23;;;;;;;;;;5075488;28;20024;-87
2022/01/25 09:20:37;;;;;;;28.08;12.93;;;;;;;;;;5076456;28;20031;-88
2022/01/25 09:23:03;;;;;;;65.32;13.38;;;;;;;;;;5093667;28;20387;-87
2022/01/25 09:25:29;;;;;;;36.40;12.73;;;;;;;;;;5072019;28;20012;-88
2022/01/25 09:27:55;;;;;;;34.03;13.50;;;;;;;;;;5072334;28;20519;-87
2022/01/25 09:30:22;;;;;;;31.48;13.43;;;;;;;;;;5072634;28;20107;-87
2022/01/25 09:32:48;;;;;;;34.15;14.45;;;;;;;;;;5073505;28;20032;-87
2022/01/25 09:35:14;;;;;;;28.15;13.23;;;;;;;;;;5083480;28;20028;-87
2022/01/25 09:37:40;;;;;;;29.13;14.48;;;;;;;;;;5054302;28;20027;-87
2022/01/25 09:40:06;;;;;;;33.92;15.00;;;;;;;;;;5054760;28;20028;-87
2022/01/25 09:42:32;;;;;;;32.90;14.50;;;;;;;;;;5054623;28;20044;-87
2022/01/25 09:44:59;;;;;;;32.15;14.05;;;;;;;;;;5072535;28;20525;-86
2022/01/25 09:47:25;;;;;;;31.92;13.88;;;;;;;;;;5073104;28;20422;-87
2022/01/25 09:49:51;;;;;;;29.00;13.13;;;;;;;;;;5052283;28;20037;-85
2022/01/25 09:52:18;;;;;;;27.73;12.75;;;;;;;;;;5052959;28;20079;-87
2022/01/25 09:54:52;;;;;;;28.48;13.35;;;;;;;;;;5054818;28;20032;-87
2022/01/25 09:57:18;;;;;;;32.28;13.30;;;;;;;;;;5072824;28;20048;-86
2022/01/25 09:59:44;;;;;;;28.75;13.23;;;;;;;;;;5073018;28;20326;-86
2022/01/25 10:02:10;;;;;;;33.92;13.65;;;;;;;;;;5083264;28;20028;-89
2022/01/25 10:04:39;;;;;;;24.27;11.80;;;;;;;;;;5074576;28;20037;-86
2022/01/25 10:07:05;;;;;;;31.15;14.15;;;;;;;;;;5068954;28;20029;-85
2022/01/25 10:09:32;;;;;;;26.45;12.13;;;;;;;;;;5054485;28;20028;-86
2022/01/25 10:12:15;;;;;;;31.98;13.45;;;;;;;;;;5068051;28;20013;-86
2022/01/25 10:14:52;;;;;;;31.58;13.75;;;;;;;;;;5034723;28;20049;-85
2022/01/25 10:17:29;;;;;;;36.35;15.07;;;;;;;;;;5071051;28;20100;-85
2022/01/25 10:19:55;;;;;;;32.75;14.30;;;;;;;;;;5092618;28;20031;-86
2022/01/25 10:22:21;;;;;;;35.00;15.48;;;;;;;;;;5074427;28;20048;-86
2022/01/25 10:24:47;;;;;;;30.38;13.60;;;;;;;;;;5082757;28;20032;-86
2022/01/25 10:27:13;;;;;;;41.53;15.88;;;;;;;;;;5072376;28;20030;-85
2022/01/25 10:29:41;;;;;;;32.75;14.88;;;;;;;;;;5092614;28;20503;-86
2022/01/25 10:32:08;;;;;;;29.77;13.88;;;;;;;;;;5092584;28;20044;-85
2022/01/25 10:34:38;;;;;;;25.85;12.93;;;;;;;;;;5072008;28;20073;-86
2022/01/25 10:37:08;;;;;;;31.17;13.13;;;;;;;;;;5044424;28;20028;-85
2022/01/25 10:39:35;;;;;;;30.00;13.70;;;;;;;;;;5053812;28;20090;-87
2022/01/25 10:42:11;;;;;;;36.10;12.65;;;;;;;;;;5074309;28;20315;-86
2022/01/25 10:44:54;;;;;;;29.27;13.48;;;;;;;;;;5092186;28;20032;-86
2022/01/25 10:47:37;;;;;;;29.10;14.18;;;;;;;;;;5089708;28;20025;-85
2022/01/25 10:50:11;;;;;;;27.70;13.32;;;;;;;;;;5075768;28;20024;-85
2022/01/25 10:52:37;;;;;;;33.58;14.65;;;;;;;;;;5058605;28;20028;-86
2022/01/25 10:55:07;;;;;;;26.27;13.55;;;;;;;;;;5057370;28;20027;-85
2022/01/25 10:57:34;;;;;;;30.02;13.98;;;;;;;;;;5036741;28;20031;-87
2022/01/25 11:00:01;;;;;;;31.23;13.40;;;;;;;;;;5092403;28;20035;-86
2022/01/25 11:02:27;;;;;;;24.20;13.25;;;;;;;;;;5078178;28;20484;-84
2022/01/25 11:05:13;;;;;;;31.38;13.52;;;;;;;;;;5076684;28;20036;-83
2022/01/25 11:07:40;;;;;;;28.42;13.20;;;;;;;;;;5071613;28;20428;-85
2022/01/25 11:10:07;;;;;;;31.65;15.05;;;;;;;;;;5061780;28;20036;-86
2022/01/25 11:12:38;;;;;;;30.23;14.32;;;;;;;;;;5060624;28;20391;-83
2022/01/25 11:15:05;;;;;;;28.60;14.35;;;;;;;;;;5057739;28;20025;-84
2022/01/25 11:17:32;;;;;;;27.55;14.35;;;;;;;;;;5077665;28;20114;-85
2022/01/25 11:19:58;;;;;;;31.25;16.23;;;;;;;;;;5099327;28;20499;-84
2022/01/25 11:22:25;;;;;;;31.25;15.23;;;;;;;;;;5094200;28;20051;-86
2022/01/25 11:24:51;;;;;;;31.55;15.43;;;;;;;;;;5077359;28;20029;-85
2022/01/25 11:27:17;;;;;;;29.33;15.35;;;;;;;;;;5074872;28;20082;-85
2022/01/25 11:29:45;;;;;;;31.05;15.40;;;;;;;;;;5058442;28;20029;-83
2022/01/25 11:32:15;;;;;;;31.13;15.82;;;;;;;;;;5077214;28;20025;-84
2022/01/25 11:34:41;;;;;;;29.58;15.07;;;;;;;;;;5077819;28;20500;-85
2022/01/25 11:37:09;;;;;;;30.77;15.80;;;;;;;;;;5082864;28;20072;-89
2022/01/25 11:39:35;;;;;;;31.83;15.27;;;;;;;;;;5098632;28;20012;-85
2022/01/25 11:42:09;;;;;;;31.15;14.95;;;;;;;;;;5056721;28;20504;-85
2022/01/25 11:44:35;;;;;;;33.90;16.77;;;;;;;;;;5037322;28;20037;-85
2022/01/25 11:47:10;;;;;;;35.40;17.00;;;;;;;;;;5039155;28;20029;-84
2022/01/25 11:49:49;;;;;;;32.40;16.95;;;;;;;;;;5081972;28;20020;-84
2022/01/25 11:52:15;;;;;;;36.25;17.73;;;;;;;;;;5075869;28;20021;-86
2022/01/25 11:54:42;;;;;;;35.22;17.02;;;;;;;;;;5076944;28;20074;-85
2022/01/25 11:57:10;;;;;;;33.63;17.45;;;;;;;;;;5075920;28;20134;-84
2022/01/25 12:48:40;;;;;;;32.30;16.70;;;;;;;;;;5070627;28;20135;-85
2022/01/25 12:51:08;;;;;;;38.83;18.00;;;;;;;;;;5054556;28;20032;-85
2022/01/25 12:53:35;;;;;;;33.78;17.63;;;;;;;;;;5059220;28;20111;-85
2022/01/25 12:56:05;;;;;;;41.30;18.95;;;;;;;;;;5086316;28;20027;-85
2022/01/25 12:58:32;;;;;;;41.92;19.30;;;;;;;;;;5087859;28;20021;-85
2022/01/25 13:01:00;;;;;;;43.28;19.38;;;;;;;;;;5094542;28;20070;-85
2022/01/25 13:03:29;;;;;;;44.70;20.33;;;;;;;;;;5073614;28;20486;-85
2022/01/25 13:05:57;;;;;;;40.20;19.08;;;;;;;;;;5073865;28;20035;-86
2022/01/25 13:08:23;;;;;;;42.80;20.95;;;;;;;;;;5074072;28;20111;-85
2022/01/25 13:10:51;;;;;;;45.28;22.38;;;;;;;;;;5072589;28;20067;-85
2022/01/25 13:13:32;;;;;;;48.10;21.95;;;;;;;;;;5077759;28;20103;-85
2022/01/25 13:15:59;;;;;;;49.28;21.63;;;;;;;;;;5078260;28;20032;-84
2022/01/25 13:18:26;;;;;;;51.38;21.52;;;;;;;;;;5078713;28;20021;-83
2022/01/25 13:21:23;;;;;;;45.78;21.55;;;;;;;;;;5064132;28;20040;-85
2022/01/25 13:24:08;;;;;;;50.28;22.92;;;;;;;;;;5074203;28;20660;-86
2022/01/25 13:27:09;;;;;;;44.65;20.45;;;;;;;;;;5040211;28;20119;-85
2022/01/25 13:35:53;;;;;;;44.65;21.15;;;;;;;;;;5064338;28;19969;-85
2022/01/25 13:38:19;;;;;;;47.58;21.13;;;;;;;;;;5067625;28;20075;-85
2022/01/25 13:40:56;;;;;;;46.50;21.55;;;;;;;;;;5075192;28;20051;-84
2022/01/25 13:46:10;;;;;;;46.95;22.05;;;;;;;;;;5074939;28;20028;-84
2022/01/25 13:48:37;;;;;;;45.08;21.55;;;;;;;;;;5090787;28;20035;-84
2022/01/25 13:51:05;;;;;;;44.08;21.70;;;;;;;;;;5067576;28;20028;-84
2022/01/25 13:53:31;;;;;;;59.55;21.90;;;;;;;;;;5075846;28;20499;-85
2022/01/25 13:55:58;;;;;;;51.10;21.17;;;;;;;;;;5047824;28;20452;-84
2022/01/25 13:58:24;;;;;;;50.55;21.08;;;;;;;;;;5077652;28;20028;-85
2022/01/25 14:00:51;;;;;;;51.05;22.17;;;;;;;;;;5065882;28;20047;-84
2022/01/25 14:03:18;;;;;;;52.72;23.65;;;;;;;;;;5090235;28;20063;-86
2022/01/25 14:05:44;;;;;;;46.95;21.95;;;;;;;;;;5084242;28;20040;-85
2022/01/25 14:08:13;;;;;;;54.08;24.42;;;;;;;;;;5056185;28;20039;-85
2022/01/25 14:11:14;;;;;;;;;;;;;;;;;;;;;
2022/01/25 14:22:26;;;;;;;58.95;23.23;;;;;;;;;;5076853;28;20103;-86
2022/01/25 14:24:53;;;;;;;55.55;23.33;;;;;;;;;;5099264;28;20071;-84
2022/01/25 14:27:21;;;;;;;54.70;23.70;;;;;;;;;;5061932;28;20040;-84
2022/01/25 14:29:50;;;;;;;54.90;24.02;;;;;;;;;;5077128;28;20116;-85
2022/01/25 14:32:16;;;;;;;59.92;25.80;;;;;;;;;;5081196;28;20028;-84
2022/01/25 14:34:42;;;;;;;56.45;25.35;;;;;;;;;;5078172;28;20104;-85
2022/01/25 14:37:12;;;;;;;58.38;23.25;;;;;;;;;;5050750;28;20025;-86
2022/01/25 14:39:42;;;;;;;59.95;25.65;;;;;;;;;;5039719;28;20481;-85
2022/01/25 14:42:11;;;;;;;62.35;23.58;;;;;;;;;;5056368;28;20074;-84
2022/01/25 14:44:43;;;;;;;62.28;25.65;;;;;;;;;;5079521;28;20024;-84
2022/01/25 14:47:13;;;;;;;66.97;25.45;;;;;;;;;;5081172;28;20058;-84
2022/01/25 14:49:45;;;;;;;62.65;25.85;;;;;;;;;;5073465;28;20054;-83
2022/01/25 14:52:11;;;;;;;60.97;24.63;;;;;;;;;;5072264;28;20024;-84
2022/01/25 14:54:39;;;;;;;60.55;25.13;;;;;;;;;;5072778;28;20078;-85
2022/01/25 14:57:09;;;;;;;57.90;24.42;;;;;;;;;;5063616;28;20025;-84
2022/01/25 14:59:37;;;;;;;57.78;24.55;;;;;;;;;;5057353;28;20024;-84
2022/01/25 15:02:08;;;;;;;54.03;24.20;;;;;;;;;;5053302;28;20031;-84
2022/01/25 15:04:39;;;;;;;76.78;34.05;;;;;;;;;;5070685;28;20035;-83
2022/01/25 15:07:05;;;;;;;58.55;25.33;;;;;;;;;;5066774;28;20170;-83
2022/01/25 15:09:32;;;;;;;56.38;23.08;;;;;;;;;;5063668;28;20041;-84
2022/01/25 15:11:58;;;;;;;52.03;22.30;;;;;;;;;;5057689;28;20395;-85
2022/01/25 15:14:34;;;;;;;56.28;26.20;;;;;;;;;;5079127;28;20558;-85
2022/01/25 15:17:00;;;;;;;54.95;23.15;;;;;;;;;;5063800;28;20078;-84
2022/01/25 15:19:26;;;;;;;56.78;24.33;;;;;;;;;;5079616;28;20049;-85
2022/01/25 15:21:52;;;;;;;55.67;23.98;;;;;;;;;;5061192;28;20028;-84
2022/01/25 15:24:20;;;;;;;60.95;22.83;;;;;;;;;;5060475;28;20044;-83
2022/01/25 15:26:52;;;;;;;52.95;24.35;;;;;;;;;;5079604;28;20104;-84
2022/01/25 15:29:22;;;;;;;57.38;23.85;;;;;;;;;;5080843;28;20169;-84
2022/01/25 15:31:50;;;;;;;58.92;24.95;;;;;;;;;;5075668;28;20016;-86
2022/01/25 15:34:16;;;;;;;53.47;23.42;;;;;;;;;;5066927;28;20111;-86
2022/01/25 15:36:43;;;;;;;64.07;23.98;;;;;;;;;;5076967;28;20032;-86
2022/01/25 15:39:09;;;;;;;53.00;23.33;;;;;;;;;;5074870;28;20024;-84
2022/01/25 15:41:36;;;;;;;53.00;22.50;;;;;;;;;;5076246;28;20016;-86
2022/01/25 15:44:03;;;;;;;64.00;23.98;;;;;;;;;;5075409;28;20435;-86
2022/01/25 15:46:33;;;;;;;62.45;23.92;;;;;;;;;;5075452;28;20503;-87
2022/01/25 15:49:00;;;;;;;64.80;24.45;;;;;;;;;;5061682;28;20032;-86
2022/01/25 15:51:26;;;;;;;55.60;24.00;;;;;;;;;;5076943;28;20047;-85
2022/01/25 15:53:53;;;;;;;65.03;24.42;;;;;;;;;;5079885;28;20545;-89
2022/01/25 15:56:19;;;;;;;59.78;23.55;;;;;;;;;;5084708;28;20115;-86
2022/01/25 15:58:46;;;;;;;56.33;22.58;;;;;;;;;;5056752;28;20028;-87
2022/01/25 16:01:13;;;;;;;59.83;23.95;;;;;;;;;;5080703;28;20100;-86
2022/01/25 16:03:39;;;;;;;62.17;24.35;;;;;;;;;;5055889;28;20021;-87
2022/01/25 16:06:06;;;;;;;62.33;24.10;;;;;;;;;;5075084;28;20035;-88
2022/01/25 16:08:33;;;;;;;82.75;33.25;;;;;;;;;;5074815;28;20028;-90
2022/01/25 16:10:59;;;;;;;63.38;25.73;;;;;;;;;;5060009;28;20110;-88
2022/01/25 16:13:28;;;;;;;109.63;43.20;;;;;;;;;;5094879;28;20020;-91
2022/01/25 16:15:54;;;;;;;95.60;36.60;;;;;;;;;;5096070;28;20051;-91
2022/01/25 16:18:21;;;;;;;63.30;24.25;;;;;;;;;;5096635;28;20479;-90
2022/01/25 16:20:47;;;;;;;75.68;29.17;;;;;;;;;;5095735;28;20029;-90
2022/01/25 16:23:13;;;;;;;57.10;24.85;;;;;;;;;;5095267;28;20023;-89
2022/01/25 16:25:40;;;;;;;58.08;22.50;;;;;;;;;;5085096;28;20100;-90
2022/01/25 16:28:07;;;;;;;60.00;21.98;;;;;;;;;;5056103;28;20593;-89
2022/01/25 16:30:35;;;;;;;72.47;27.95;;;;;;;;;;5056361;28;20513;-89
2022/01/25 16:33:01;;;;;;;57.70;22.92;;;;;;;;;;5075700;28;20025;-89
2022/01/25 16:35:27;;;;;;;67.88;24.38;;;;;;;;;;5075859;28;20118;-89
2022/01/25 16:37:54;;;;;;;63.28;24.13;;;;;;;;;;5074151;28;20471;-89
2022/01/25 16:40:20;;;;;;;69.13;25.17;;;;;;;;;;5060358;28;20108;-88
2022/01/25 16:42:46;;;;;;;65.93;26.60;;;;;;;;;;5085012;28;20029;-90
2022/01/25 16:45:13;;;;;;;64.63;25.05;;;;;;;;;;5074413;28;20039;-89
2022/01/25 16:47:40;;;;;;;66.03;25.10;;;;;;;;;;5066732;28;20024;-88
2022/01/25 16:50:09;;;;;;;62.58;24.80;;;;;;;;;;5060952;28;20089;-89
2022/01/25 16:52:35;;;;;;;62.60;25.52;;;;;;;;;;5053224;28;20384;-89
2022/01/25 16:55:01;;;;;;;68.75;25.40;;;;;;;;;;5074008;28;20472;-88
2022/01/25 16:57:27;;;;;;;61.17;24.88;;;;;;;;;;5073987;28;20056;-90
2022/01/25 16:59:53;;;;;;;62.90;25.02;;;;;;;;;;5055953;28;20039;-89
2022/01/25 17:02:19;;;;;;;69.40;27.90;;;;;;;;;;5074168;28;20040;-90
2022/01/25 17:04:45;;;;;;;68.50;26.80;;;;;;;;;;5055977;28;20025;-89
2022/01/25 17:07:11;;;;;;;61.58;22.85;;;;;;;;;;5074632;28;20039;-89
2022/01/25 17:09:38;;;;;;;66.70;24.30;;;;;;;;;;5056818;28;20024;-90
2022/01/25 17:12:06;;;;;;;69.95;25.15;;;;;;;;;;5085951;28;20016;-89
2022/01/25 17:14:32;;;;;;;73.43;26.88;;;;;;;;;;5074412;28;20761;-89
2022/01/25 17:16:58;;;;;;;65.40;24.05;;;;;;;;;;5074320;28;20360;-89
2022/01/25 17:19:27;;;;;;;68.63;24.02;;;;;;;;;;5057616;28;20074;-89
2022/01/25 17:21:55;;;;;;;71.38;25.27;;;;;;;;;;5075168;28;20074;-90
2022/01/25 17:24:21;;;;;;;68.45;25.20;;;;;;;;;;5056294;28;20478;-89